Airfield :
LOGIN :

Register | Disclaimer

   EN    FR    IT 

 










Legend :    VFR   Marginal VFR   IFR   Intensive IFR   Very Intensive IFR
Visi :
Ceiling :
>= 8 km
>= 3000ft
5 to 8 km
1000 to 3000 ft
1500m to 5 km
500 to 1000 ft
800 to 1500m
200 to 500 ft
< 800m
< 200 ft
Symbols :   Thunderstorms  Fog  Heavy snow  Heavy precipitations  Wind > 20 kt
SIGMETs :     Misc.  Thunderstorms  Icing  Turbulence  Mountain Waves  Volcanic Ashes






- Airport Elevation : 614 ft
- IATA code : CRL


EBCI - Charleroi

CURRENT METAR :
  • 150750Z 22007KT 9999 -RA SCT012 BKN025 13/11 Q1007 TEMPO 4000 RA SHRA BKN008

EXPIRED METARs :
  • 150720Z 20008KT 170V230 6000 RA BKN006 BKN020 13/12 Q1007 TEMPO 4000 RA SHRA BKN005
  • 150650Z 21007KT 180V240 6000 RA BKN006 BKN020 14/12 Q1006 TEMPO 4000 RA SHRA BKN005
  • 150620Z 21007KT 9999 -RA BKN007 BKN020 14/13 Q1006 TEMPO 4000 RA SHRA BKN005
  • 150550Z 20006KT 9999 -RA BKN008 14/12 Q1006 TEMPO 4000 RA SHRA BKN008
  • 150520Z 21007KT 9999 -RA SCT010 14/12 Q1006 TEMPO 4000 RA SHRA BKN008

TAF TAF EBCI
Valid from the 15 at 06:00 until the 16 at 12:00 UTC


150500Z 1506/1612 23006KT 9999 FEW012 SCT020
PROB30
TEMPO 1506/1518 4000 RA SHRA BKN011 SCT018CB
TEMPO 1606/1612 4000 RA SCT008 BKN012
PROB30
TEMPO 1608/1612 BKN008



MET'MAP, your aeronautical weather chart ! - Copyright ORBIFLY December 2007 - Disclaimer

ORBIFLY MET'MAP TEAM :

Programming & Development : Alexandra Zaïnal
Concept & Development : Baudouin d'Aumeries
Co-Development & Prog : Marc-Olivier Méhu
Technical & hardware support : Manuel Goepfert

Contact : metmap@orbifly.com




SOURCES & CREDITS :

   NOAA